Siren, WI (54872)

9:37 AM CST on January 26, 2015 (GMT -0600)
Burnett County | Change Station
CLOSE
Current Station
Airport
Location: Siren,
Elevation: 988 ft
Nearby Weather Stations
Active Advisory: Special Statement

Elev 988 ft 45.82 °N, 92.37 °W | Updated 22 minutes ago

Overcast
Overcast
25 °F
Feels Like 17 °F
N
7
Wind Variable Wind from SSE

Today
High -- | Low -- °F
--% Chance of Precip.
Yesterday
High -- | Low -- °F
Precip. -- in
7:38 AM 5:06 PM
Waxing Crescent, 44% visible
Pressure 29.67 in
Visibility 2.0 miles
Clouds Overcast 500 ft
Windchill 17 °F
Dew Point 24 °F
Humidity 96%
Rainfall 0.00 in
Snow Depth Not available.
UV 0 out of 12
Pollen .10 out of 12
Air Quality Not available.
Flu Activity Not available.
METAR KRZN 261515Z AUTO 15006KT 2SM BR OVC005 M04/M04 A2967 RMK AO2 T10401045

More Conditions Fewer Conditions

Pressure 29.67 in
Visibility 2.0 miles
Clouds Overcast 500 ft
Windchill 17 °F
Dew Point 24 °F
Humidity 96%
Rainfall 0.00 in
Snow Depth Not available.
UV 0 out of 12
Pollen .10 out of 12
Air Quality Not available.
Flu Activity Not available.
METAR KRZN 261515Z AUTO 15006KT 2SM BR OVC005 M04/M04 A2967 RMK AO2 T10401045

More Conditions Fewer Conditions

10-Day Weather Forecast

Almanac

Astronomy

Jan. 26, 2015 Rise Set
Actual Time
Civil Twilight
Nautical Twilight
Astronomical Twilight
Moon
Length of Visible Light
Length of Day
Tomorrow will be .
, % of the Moon is Illuminated

Today's Extremes

State Highs State Lows

Community

WunderPhotos

Upload Photos

1,790,246 photos uploaded!

WunderBlogs® & News

Nearby

Air Quality

  Air Quality AQ Index Pollutant
Not available.

Snow Depth

Station Depth Elevation

Earthquake Activity

City Distance Mag. Time & Date
Minimum magnitude displayed is 2.5.

Coastal Water Temperatures

Place Temperature

Nearby Weather Stations